createdAt,value
2022-09-29T00:00:29.598Z,16.15
2022-09-29T00:01:32.583Z,16.13
2022-09-29T00:02:35.455Z,16.11
2022-09-29T00:03:38.465Z,16.11
2022-09-29T00:04:41.477Z,16.10
2022-09-29T00:05:49.721Z,16.09
2022-09-29T00:06:52.730Z,16.09
2022-09-29T00:07:55.606Z,16.09
2022-09-29T00:08:58.560Z,16.08
2022-09-29T00:10:01.378Z,16.08
2022-09-29T00:11:09.799Z,16.08
2022-09-29T00:12:12.670Z,16.06
2022-09-29T00:13:16.363Z,16.06
2022-09-29T00:14:19.408Z,16.04
2022-09-29T00:15:22.578Z,16.04
2022-09-29T00:16:25.680Z,16.03
2022-09-29T00:17:28.741Z,16.02
2022-09-29T00:18:33.128Z,16.01
2022-09-29T00:19:35.926Z,16.00
2022-09-29T00:20:39.593Z,16.00
2022-09-29T00:21:42.587Z,15.99
2022-09-29T00:22:49.161Z,15.97
2022-09-29T00:23:52.264Z,15.96
2022-09-29T00:24:55.176Z,15.94
2022-09-29T00:26:16.300Z,15.92
2022-09-29T00:27:19.450Z,15.91
2022-09-29T00:28:22.610Z,15.88
2022-09-29T00:29:25.804Z,15.88
2022-09-29T00:30:29.021Z,15.86
2022-09-29T00:31:33.424Z,15.84
2022-09-29T00:32:36.385Z,15.84
2022-09-29T00:33:39.970Z,15.85
2022-09-29T00:34:43.051Z,15.84
2022-09-29T00:35:49.731Z,15.83
2022-09-29T00:36:52.937Z,15.83
2022-09-29T00:37:55.891Z,15.82
2022-09-29T00:38:59.182Z,15.82
2022-09-29T00:40:04.620Z,15.81
2022-09-29T00:41:10.217Z,15.80
2022-09-29T00:42:17.030Z,15.79
2022-09-29T00:43:26.733Z,15.80
2022-09-29T00:44:55.985Z,15.79
2022-09-29T00:45:59.105Z,15.79
2022-09-29T00:47:04.193Z,15.77
2022-09-29T00:48:10.702Z,15.75
2022-09-29T00:49:35.244Z,15.74
2022-09-29T00:50:44.826Z,15.72
2022-09-29T00:51:51.512Z,15.69
2022-09-29T00:52:58.050Z,15.67
2022-09-29T00:54:02.398Z,15.65
2022-09-29T00:55:18.044Z,15.63
2022-09-29T00:56:21.294Z,15.62
2022-09-29T00:57:27.785Z,15.59
2022-09-29T00:58:36.809Z,15.59
2022-09-29T00:59:45.076Z,15.58
2022-09-29T01:00:48.546Z,15.57
2022-09-29T01:01:52.280Z,15.55
2022-09-29T01:03:02.089Z,15.54
2022-09-29T01:04:08.534Z,15.53
2022-09-29T01:05:15.049Z,15.52
2022-09-29T01:06:27.900Z,15.50
2022-09-29T01:07:32.095Z,15.49
2022-09-29T01:08:59.198Z,15.47
2022-09-29T01:10:02.432Z,15.47
2022-09-29T01:11:05.930Z,15.45
2022-09-29T01:12:08.845Z,15.44
2022-09-29T01:13:12.113Z,15.45
2022-09-29T01:14:16.043Z,15.46
2022-09-29T01:15:22.579Z,15.47
2022-09-29T01:16:25.588Z,15.47
2022-09-29T01:17:28.582Z,15.45
2022-09-29T01:18:32.137Z,15.45
2022-09-29T01:20:04.219Z,15.43
2022-09-29T01:21:26.068Z,15.43
2022-09-29T01:22:41.647Z,15.40
2022-09-29T01:24:00.107Z,15.38
2022-09-29T01:25:38.433Z,15.37
2022-09-29T01:26:59.931Z,15.38
2022-09-29T01:28:30.375Z,15.37
2022-09-29T01:29:39.793Z,15.37
2022-09-29T01:30:46.426Z,15.37
2022-09-29T01:32:02.798Z,15.39
2022-09-29T01:33:24.336Z,15.40
2022-09-29T01:34:45.909Z,15.41
2022-09-29T01:36:13.516Z,15.43
2022-09-29T01:37:36.314Z,15.42
2022-09-29T01:39:19.137Z,15.42
2022-09-29T01:40:28.746Z,15.40
2022-09-29T01:41:53.852Z,15.39
2022-09-29T01:43:09.224Z,15.36
2022-09-29T01:44:21.593Z,15.35
2022-09-29T01:45:31.104Z,15.35
2022-09-29T01:46:46.554Z,15.36
2022-09-29T01:47:56.236Z,15.37
2022-09-29T01:49:02.636Z,15.37
2022-09-29T01:50:12.063Z,15.37
2022-09-29T01:51:18.628Z,15.38
2022-09-29T01:52:25.133Z,15.38
2022-09-29T01:53:37.067Z,15.38
2022-09-29T01:54:49.655Z,15.40
2022-09-29T01:55:56.968Z,15.44
2022-09-29T01:57:03.380Z,15.49
2022-09-29T01:58:09.429Z,15.52
2022-09-29T01:59:24.947Z,15.56
2022-09-29T02:00:31.918Z,15.60
2022-09-29T02:01:38.801Z,15.64
2022-09-29T02:02:54.426Z,15.67
2022-09-29T02:04:00.962Z,15.69
2022-09-29T02:05:07.486Z,15.70
2022-09-29T02:06:14.224Z,15.70
2022-09-29T02:07:20.885Z,15.70
2022-09-29T02:08:33.544Z,15.70
2022-09-29T02:09:39.972Z,15.72
2022-09-29T02:10:52.542Z,15.73
2022-09-29T02:11:58.319Z,15.74
2022-09-29T02:13:04.559Z,15.77
2022-09-29T02:14:14.022Z,15.78
2022-09-29T02:15:20.578Z,15.80
2022-09-29T02:16:27.129Z,15.79
2022-09-29T02:17:33.379Z,15.80
2022-09-29T02:18:45.797Z,15.80
2022-09-29T02:19:51.141Z,15.82
2022-09-29T02:20:54.206Z,15.84
2022-09-29T02:21:57.899Z,15.84
2022-09-29T02:23:01.314Z,15.85
2022-09-29T02:24:04.198Z,15.86
2022-09-29T02:25:10.450Z,15.86
2022-09-29T02:26:14.528Z,15.88
2022-09-29T02:27:17.511Z,15.89
2022-09-29T02:28:20.927Z,15.91
2022-09-29T02:29:23.783Z,15.91
2022-09-29T02:30:26.737Z,15.92
2022-09-29T02:31:31.485Z,15.92
2022-09-29T02:32:36.108Z,15.94
2022-09-29T02:33:39.022Z,15.95
2022-09-29T02:34:45.776Z,15.96
2022-09-29T02:36:12.557Z,15.97
2022-09-29T02:37:33.967Z,15.98
2022-09-29T02:38:43.621Z,15.98
2022-09-29T02:39:56.027Z,15.97
2022-09-29T02:41:14.287Z,15.98
2022-09-29T02:42:43.845Z,15.99
2022-09-29T02:43:55.916Z,15.99
2022-09-29T02:45:17.269Z,15.99
2022-09-29T02:46:44.158Z,16.00
2022-09-29T02:47:55.012Z,16.00
2022-09-29T02:49:08.598Z,16.00
2022-09-29T02:50:15.101Z,16.00
2022-09-29T02:51:21.627Z,15.99
2022-09-29T02:52:28.143Z,15.98
2022-09-29T02:54:01.530Z,15.97
2022-09-29T02:55:19.579Z,15.97
2022-09-29T02:56:34.850Z,15.94
2022-09-29T02:57:44.181Z,15.93
2022-09-29T02:58:50.721Z,15.93
2022-09-29T03:00:07.983Z,15.92
2022-09-29T03:01:11.215Z,15.93
2022-09-29T03:02:16.034Z,15.94
2022-09-29T03:03:18.992Z,15.94
2022-09-29T03:04:24.604Z,15.95
2022-09-29T03:05:27.574Z,15.97
2022-09-29T03:06:30.508Z,15.97
2022-09-29T03:07:35.690Z,16.00
2022-09-29T03:08:38.637Z,16.01
2022-09-29T03:09:41.548Z,16.02
2022-09-29T03:10:44.455Z,16.02
2022-09-29T03:11:47.262Z,16.02
2022-09-29T03:12:50.207Z,16.00
2022-09-29T03:13:53.040Z,16.00
2022-09-29T03:14:55.982Z,16.01
2022-09-29T03:15:58.909Z,16.01
2022-09-29T03:17:01.785Z,16.02
2022-09-29T03:18:09.335Z,16.03
2022-09-29T03:19:09.713Z,16.04
2022-09-29T03:20:12.713Z,16.04
2022-09-29T03:21:15.714Z,16.05
2022-09-29T03:22:18.663Z,16.06
2022-09-29T03:23:21.832Z,16.08
2022-09-29T03:24:24.832Z,16.08
2022-09-29T03:25:27.977Z,16.08
2022-09-29T03:26:30.855Z,16.08
2022-09-29T03:27:35.941Z,16.10
2022-09-29T03:28:38.776Z,16.11
2022-09-29T03:29:41.650Z,16.11
2022-09-29T03:30:47.431Z,16.11
2022-09-29T03:31:50.341Z,16.11
2022-09-29T03:32:53.405Z,16.11
2022-09-29T03:33:56.221Z,16.11
2022-09-29T03:34:59.149Z,16.12
2022-09-29T03:36:03.178Z,16.14
2022-09-29T03:37:05.925Z,16.16
2022-09-29T03:38:09.332Z,16.18
2022-09-29T03:39:12.313Z,16.20
2022-09-29T03:40:16.809Z,16.21
2022-09-29T03:41:19.903Z,16.22
2022-09-29T03:42:23.890Z,16.21
2022-09-29T03:43:26.750Z,16.22
2022-09-29T03:44:29.684Z,16.22
2022-09-29T03:45:32.756Z,16.21
2022-09-29T03:46:35.771Z,16.20
2022-09-29T03:47:38.744Z,16.18
2022-09-29T03:48:42.368Z,16.18
2022-09-29T03:49:45.511Z,16.16
2022-09-29T03:50:50.193Z,16.14
2022-09-29T03:51:53.125Z,16.12
2022-09-29T03:52:55.992Z,16.10
2022-09-29T03:53:58.841Z,16.10
2022-09-29T03:55:01.824Z,16.11
2022-09-29T03:56:04.787Z,16.11
2022-09-29T03:57:07.792Z,16.12
2022-09-29T03:58:10.703Z,16.13
2022-09-29T03:59:15.180Z,16.11
2022-09-29T04:00:18.788Z,16.12
2022-09-29T04:01:21.999Z,16.14
2022-09-29T04:02:25.287Z,16.15
2022-09-29T04:03:28.804Z,16.15
2022-09-29T04:04:31.685Z,16.14
2022-09-29T04:05:36.366Z,16.14
2022-09-29T04:06:39.468Z,16.13
2022-09-29T04:07:42.230Z,16.13
2022-09-29T04:08:45.172Z,16.13
2022-09-29T04:09:48.039Z,16.13
2022-09-29T04:10:50.864Z,16.14
2022-09-29T04:11:53.783Z,16.15
2022-09-29T04:12:56.702Z,16.17
2022-09-29T04:14:00.275Z,16.18
2022-09-29T04:15:03.871Z,16.18
2022-09-29T04:16:07.518Z,16.18
2022-09-29T04:17:10.489Z,16.17
2022-09-29T04:18:13.575Z,16.17
2022-09-29T04:19:16.736Z,16.17
2022-09-29T04:20:20.390Z,16.17
2022-09-29T04:21:23.703Z,16.17
2022-09-29T04:22:26.574Z,16.17
2022-09-29T04:23:29.977Z,16.17
2022-09-29T04:24:32.814Z,16.20
2022-09-29T04:25:35.660Z,16.21
2022-09-29T04:26:39.433Z,16.23
2022-09-29T04:27:42.454Z,16.24
2022-09-29T04:28:45.447Z,16.25
2022-09-29T04:29:48.406Z,16.27
2022-09-29T04:30:51.910Z,16.27
2022-09-29T04:31:55.798Z,16.30
2022-09-29T04:32:58.817Z,16.31
2022-09-29T04:34:02.111Z,16.32
2022-09-29T04:35:05.698Z,16.32
2022-09-29T04:36:09.065Z,16.33
2022-09-29T04:37:12.363Z,16.32
2022-09-29T04:38:15.396Z,16.33
2022-09-29T04:39:18.306Z,16.34
2022-09-29T04:40:21.391Z,16.34
2022-09-29T04:41:24.678Z,16.34
2022-09-29T04:42:27.638Z,16.34
2022-09-29T04:43:30.595Z,16.36
2022-09-29T04:44:33.638Z,16.37
2022-09-29T04:45:36.839Z,16.38
2022-09-29T04:46:39.943Z,16.39
2022-09-29T04:47:43.091Z,16.42
2022-09-29T04:48:46.015Z,16.43
2022-09-29T04:49:48.998Z,16.45
2022-09-29T04:50:53.885Z,16.47
2022-09-29T04:51:56.865Z,16.50
2022-09-29T04:53:00.146Z,16.54
2022-09-29T04:54:03.171Z,16.58
2022-09-29T04:55:08.314Z,16.61
2022-09-29T04:56:11.713Z,16.64
2022-09-29T04:57:14.764Z,16.67
2022-09-29T04:58:17.820Z,16.68
2022-09-29T04:59:20.997Z,16.70
2022-09-29T05:00:24.496Z,16.71
2022-09-29T05:01:27.659Z,16.72
2022-09-29T05:02:30.573Z,16.76
2022-09-29T05:03:33.557Z,16.79
2022-09-29T05:04:36.458Z,16.81
2022-09-29T05:05:39.611Z,16.83
2022-09-29T05:06:42.506Z,16.83
2022-09-29T05:07:45.403Z,16.85
2022-09-29T05:08:48.864Z,16.86
2022-09-29T05:09:51.753Z,16.87
2022-09-29T05:10:54.862Z,16.86
2022-09-29T05:11:57.687Z,16.86
2022-09-29T05:13:06.707Z,16.85
2022-09-29T05:14:10.989Z,16.85
2022-09-29T05:15:13.921Z,16.82
2022-09-29T05:16:17.456Z,16.79
2022-09-29T05:17:20.372Z,16.76
2022-09-29T05:18:24.923Z,16.75
2022-09-29T05:19:27.950Z,16.72
2022-09-29T05:20:39.898Z,16.70
2022-09-29T05:21:35.600Z,16.67
2022-09-29T05:22:38.885Z,16.66
2022-09-29T05:23:42.118Z,16.66
2022-09-29T05:24:44.973Z,16.65
2022-09-29T05:25:48.144Z,16.64
2022-09-29T05:26:54.816Z,16.64
2022-09-29T05:27:57.026Z,16.62
2022-09-29T05:28:59.852Z,16.62
2022-09-29T05:30:03.630Z,16.61
2022-09-29T05:31:08.605Z,16.60
2022-09-29T05:32:12.321Z,16.59
2022-09-29T05:33:15.206Z,16.58
2022-09-29T05:34:18.340Z,16.57
2022-09-29T05:35:21.357Z,16.55
2022-09-29T05:36:24.487Z,16.55
2022-09-29T05:37:27.423Z,16.56
2022-09-29T05:38:30.157Z,16.57
2022-09-29T05:39:34.046Z,16.57
2022-09-29T05:40:37.187Z,16.60
2022-09-29T05:41:40.558Z,16.61
2022-09-29T05:42:43.822Z,16.62
2022-09-29T05:43:47.498Z,16.64
2022-09-29T05:44:50.406Z,16.65
2022-09-29T05:45:55.107Z,16.67
2022-09-29T05:46:58.218Z,16.66
2022-09-29T05:48:01.444Z,16.67
2022-09-29T05:49:04.362Z,16.68
2022-09-29T05:50:08.169Z,16.70
2022-09-29T05:51:13.795Z,16.68
2022-09-29T05:52:16.567Z,16.68
2022-09-29T05:53:19.659Z,16.66
2022-09-29T05:54:23.622Z,16.66
2022-09-29T05:55:26.675Z,16.66
2022-09-29T05:56:29.922Z,16.67
2022-09-29T05:57:32.821Z,16.68
2022-09-29T05:58:37.050Z,16.70
2022-09-29T05:59:40.140Z,16.71
2022-09-29T06:00:43.732Z,16.76
2022-09-29T06:01:46.916Z,16.76
2022-09-29T06:02:50.105Z,16.79
2022-09-29T06:03:54.732Z,16.82
2022-09-29T06:04:59.285Z,16.87
2022-09-29T06:06:14.550Z,16.92
2022-09-29T06:07:17.930Z,16.97
2022-09-29T06:08:21.583Z,17.00
2022-09-29T06:09:24.502Z,17.03
2022-09-29T06:10:27.611Z,17.04
2022-09-29T06:11:31.483Z,17.05
2022-09-29T06:12:37.398Z,17.06
2022-09-29T06:13:41.961Z,17.06
2022-09-29T06:14:44.772Z,17.07
2022-09-29T06:15:48.025Z,17.06
2022-09-29T06:16:51.218Z,17.05
2022-09-29T06:17:58.505Z,17.05
2022-09-29T06:19:02.298Z,17.06
2022-09-29T06:20:09.377Z,17.04
2022-09-29T06:21:15.372Z,17.04
2022-09-29T06:22:19.185Z,17.03
2022-09-29T06:23:22.222Z,17.03
2022-09-29T06:24:25.352Z,17.03
2022-09-29T06:25:28.193Z,17.03
2022-09-29T06:26:31.098Z,17.02
2022-09-29T06:27:34.183Z,17.03
2022-09-29T06:28:39.205Z,17.03
2022-09-29T06:29:42.246Z,17.02
2022-09-29T06:30:45.095Z,17.01
2022-09-29T06:31:48.371Z,17.01
2022-09-29T06:32:51.339Z,17.01
2022-09-29T06:33:56.963Z,17.02
2022-09-29T06:35:18.558Z,17.02
2022-09-29T06:36:42.648Z,17.05
2022-09-29T06:37:46.086Z,17.05
2022-09-29T06:38:49.219Z,17.07
2022-09-29T06:39:52.159Z,17.08
2022-09-29T06:40:55.136Z,17.08
2022-09-29T06:41:58.124Z,17.11
2022-09-29T06:43:01.716Z,17.12
2022-09-29T06:44:04.758Z,17.14
2022-09-29T06:45:10.019Z,17.15
2022-09-29T06:46:13.611Z,17.17
2022-09-29T06:47:16.690Z,17.20
2022-09-29T06:48:19.610Z,17.23
2022-09-29T06:49:23.561Z,17.25
2022-09-29T06:50:26.491Z,17.28
2022-09-29T06:51:42.935Z,17.31
2022-09-29T06:52:34.551Z,17.35
2022-09-29T06:53:39.074Z,17.40
2022-09-29T06:54:42.348Z,17.45
2022-09-29T06:55:53.677Z,17.51
2022-09-29T06:56:56.644Z,17.58
2022-09-29T06:58:03.764Z,17.65
2022-09-29T06:59:04.415Z,17.71
2022-09-29T07:00:08.850Z,17.79
2022-09-29T07:01:12.534Z,17.86
2022-09-29T07:02:15.577Z,17.93
2022-09-29T07:03:18.482Z,18.02
2022-09-29T07:04:21.712Z,18.08
2022-09-29T07:05:24.768Z,18.15
2022-09-29T07:06:28.863Z,18.23
2022-09-29T07:07:31.734Z,18.30
2022-09-29T07:08:37.223Z,18.37
2022-09-29T07:09:40.438Z,18.44
2022-09-29T07:10:43.485Z,18.48
2022-09-29T07:11:49.955Z,18.51
2022-09-29T07:12:52.931Z,18.54
2022-09-29T07:13:55.900Z,18.56
2022-09-29T07:14:58.889Z,18.58
2022-09-29T07:16:07.607Z,18.59
2022-09-29T07:17:12.442Z,18.61
2022-09-29T07:18:15.504Z,18.63
2022-09-29T07:20:44.880Z,18.66
2022-09-29T07:21:48.156Z,18.69
2022-09-29T07:23:02.922Z,18.69
2022-09-29T07:25:50.158Z,18.71
2022-09-29T07:26:32.622Z,18.71
2022-09-29T07:27:35.555Z,18.71
2022-09-29T07:28:38.938Z,18.71
2022-09-29T07:29:42.182Z,18.71
2022-09-29T07:30:45.570Z,18.72
2022-09-29T07:31:52.252Z,18.74
2022-09-29T07:33:01.148Z,18.74
2022-09-29T07:33:59.867Z,18.74
2022-09-29T07:35:03.726Z,18.75
2022-09-29T07:36:07.388Z,18.77
2022-09-29T07:37:11.188Z,18.79
2022-09-29T07:38:14.259Z,18.81
2022-09-29T07:39:19.296Z,18.83
2022-09-29T07:40:23.891Z,18.84
2022-09-29T07:41:27.519Z,18.85
2022-09-29T07:42:30.879Z,18.86
2022-09-29T07:43:34.531Z,18.86
2022-09-29T07:44:37.612Z,18.86
2022-09-29T07:45:49.409Z,18.88
2022-09-29T07:46:52.612Z,18.90
2022-09-29T07:47:56.710Z,18.92
2022-09-29T07:48:59.635Z,18.92
2022-09-29T07:50:03.034Z,18.94
2022-09-29T07:51:11.363Z,18.97
2022-09-29T07:52:14.867Z,19.01
2022-09-29T07:53:17.708Z,19.04
2022-09-29T07:54:23.523Z,19.07
2022-09-29T07:55:27.074Z,19.09
2022-09-29T07:56:29.947Z,19.11
2022-09-29T07:57:32.864Z,19.11
2022-09-29T07:58:36.918Z,19.11
2022-09-29T07:59:47.330Z,19.09
2022-09-29T08:00:44.752Z,19.05
2022-09-29T08:01:48.251Z,19.03
2022-09-29T08:02:51.301Z,18.98
2022-09-29T08:03:55.585Z,18.95
2022-09-29T08:05:02.214Z,18.90
2022-09-29T08:06:03.644Z,18.84
2022-09-29T08:07:07.544Z,18.80
2022-09-29T08:08:10.410Z,18.75
2022-09-29T08:09:14.003Z,18.70
2022-09-29T08:10:17.923Z,18.65
2022-09-29T08:11:30.589Z,18.60
2022-09-29T08:12:37.854Z,18.56
2022-09-29T08:13:32.307Z,18.52
2022-09-29T08:14:40.738Z,18.50
2022-09-29T08:15:42.340Z,18.47
2022-09-29T08:16:45.426Z,18.46
2022-09-29T08:17:48.398Z,18.45
2022-09-29T08:18:51.420Z,18.42
2022-09-29T08:19:54.301Z,18.39
2022-09-29T08:20:59.987Z,18.38
2022-09-29T08:22:02.416Z,18.36
2022-09-29T08:23:06.343Z,18.34
2022-09-29T08:24:12.360Z,18.33
2022-09-29T08:25:16.281Z,18.33
2022-09-29T08:26:32.952Z,18.32
2022-09-29T08:27:26.300Z,18.33
2022-09-29T08:28:32.615Z,18.33
2022-09-29T08:29:44.508Z,18.34
2022-09-29T08:30:40.917Z,18.37
2022-09-29T08:31:44.689Z,18.38
2022-09-29T08:32:54.631Z,18.39
2022-09-29T08:33:58.706Z,18.39
2022-09-29T08:35:02.149Z,18.39
2022-09-29T08:36:08.639Z,18.40
2022-09-29T08:37:11.790Z,18.39
2022-09-29T08:38:14.550Z,18.39
2022-09-29T08:39:20.072Z,18.38
2022-09-29T08:40:23.119Z,18.38
2022-09-29T08:41:34.883Z,18.38
2022-09-29T08:42:49.313Z,18.39
2022-09-29T08:43:56.835Z,18.37
2022-09-29T08:45:15.620Z,18.37
2022-09-29T08:46:17.308Z,18.34
2022-09-29T08:47:41.351Z,18.31
2022-09-29T08:48:45.334Z,18.29
2022-09-29T08:49:48.442Z,18.27
2022-09-29T08:50:59.629Z,18.25
2022-09-29T08:52:16.867Z,18.26
2022-09-29T08:53:28.314Z,18.26
2022-09-29T08:54:38.638Z,18.27
2022-09-29T08:55:47.690Z,18.25
2022-09-29T08:56:50.899Z,18.25
2022-09-29T08:57:57.324Z,18.23
2022-09-29T08:59:00.307Z,18.23
2022-09-29T09:00:04.512Z,18.23
2022-09-29T09:01:34.398Z,18.23
2022-09-29T09:02:59.424Z,18.20
2022-09-29T09:04:18.271Z,18.19
2022-09-29T09:05:39.798Z,18.17
2022-09-29T09:07:01.614Z,18.15
2022-09-29T09:08:17.412Z,18.14
2022-09-29T09:09:35.894Z,18.14
2022-09-29T09:10:47.967Z,18.12
2022-09-29T09:12:03.353Z,18.12
2022-09-29T09:13:15.883Z,18.12
2022-09-29T09:14:28.196Z,18.13
2022-09-29T09:15:37.761Z,18.13
2022-09-29T09:17:01.255Z,18.14
2022-09-29T09:18:21.911Z,18.15
2022-09-29T09:19:31.394Z,18.18
2022-09-29T09:20:37.454Z,18.20
2022-09-29T09:21:42.833Z,18.21
2022-09-29T09:23:00.775Z,18.22
2022-09-29T09:24:21.472Z,18.24
2022-09-29T09:25:35.731Z,18.27
2022-09-29T09:26:44.502Z,18.27
2022-09-29T09:27:50.945Z,18.29
2022-09-29T09:28:57.413Z,18.29
2022-09-29T09:30:03.876Z,18.28
2022-09-29T09:31:26.258Z,18.28
2022-09-29T09:32:32.263Z,18.27
2022-09-29T09:33:41.722Z,18.27
2022-09-29T09:34:48.266Z,18.27
2022-09-29T09:35:59.320Z,18.26
2022-09-29T09:37:14.981Z,18.27
2022-09-29T09:38:27.662Z,18.27
2022-09-29T09:39:40.179Z,18.28
2022-09-29T09:40:46.752Z,18.28
2022-09-29T09:41:53.614Z,18.30
2022-09-29T09:43:14.868Z,18.30
2022-09-29T09:44:21.279Z,18.31
2022-09-29T09:45:30.969Z,18.33
2022-09-29T09:46:44.054Z,18.33
2022-09-29T09:47:53.759Z,18.36
2022-09-29T09:49:00.424Z,18.37
2022-09-29T09:51:23.508Z,18.50
2022-09-29T09:52:33.164Z,18.40
2022-09-29T09:53:39.566Z,18.41
2022-09-29T09:54:46.025Z,18.42
2022-09-29T09:56:08.873Z,18.43
2022-09-29T09:57:30.090Z,18.41
2022-09-29T09:58:39.121Z,18.42
2022-09-29T10:00:08.458Z,18.43
2022-09-29T10:01:17.411Z,18.42
2022-09-29T10:02:22.103Z,18.41
2022-09-29T10:03:27.903Z,18.43
2022-09-29T10:04:33.408Z,18.44
2022-09-29T10:05:44.552Z,18.45
2022-09-29T10:06:47.497Z,18.46
2022-09-29T10:07:51.246Z,18.48
2022-09-29T10:08:54.382Z,18.50
2022-09-29T10:10:00.370Z,18.51
2022-09-29T10:11:05.405Z,18.52
2022-09-29T10:12:11.924Z,18.53
2022-09-29T10:13:16.290Z,18.55
2022-09-29T10:14:23.025Z,18.55
2022-09-29T10:15:35.363Z,18.56
2022-09-29T10:17:00.239Z,18.58
2022-09-29T10:18:07.132Z,18.59
2022-09-29T10:19:10.507Z,18.59
2022-09-29T10:20:18.159Z,18.60
2022-09-29T10:21:41.430Z,18.61
2022-09-29T10:22:48.416Z,18.62
2022-09-29T10:23:52.456Z,18.65
2022-09-29T10:25:14.361Z,18.67
2022-09-29T10:26:22.775Z,18.69
2022-09-29T10:27:25.792Z,18.71
2022-09-29T10:28:38.599Z,18.71
2022-09-29T10:29:43.954Z,18.73
2022-09-29T10:30:47.233Z,18.75
2022-09-29T10:32:05.652Z,18.77
2022-09-29T10:33:15.828Z,18.78
2022-09-29T10:34:24.586Z,18.80
2022-09-29T10:35:33.953Z,18.82
2022-09-29T10:37:01.674Z,18.84
2022-09-29T10:38:25.485Z,18.85
2022-09-29T10:39:47.729Z,18.86
2022-09-29T10:41:01.584Z,18.87
2022-09-29T10:42:24.957Z,18.87
2022-09-29T10:43:41.845Z,18.88
2022-09-29T10:44:48.655Z,18.88
2022-09-29T10:45:53.529Z,18.89
2022-09-29T10:46:56.779Z,18.90
2022-09-29T10:48:03.852Z,18.92
2022-09-29T10:49:19.271Z,18.92
2022-09-29T10:50:32.164Z,18.94
2022-09-29T10:51:33.705Z,18.96
2022-09-29T10:52:37.159Z,18.98
2022-09-29T10:53:43.003Z,19.01
2022-09-29T10:55:03.524Z,19.02
2022-09-29T10:56:17.010Z,19.03
2022-09-29T10:57:23.645Z,19.03
2022-09-29T10:59:49.175Z,19.04
2022-09-29T11:00:58.328Z,19.06
2022-09-29T11:02:02.071Z,19.08
2022-09-29T11:03:08.498Z,19.10
2022-09-29T11:04:20.928Z,19.11
2022-09-29T11:05:24.081Z,19.12
2022-09-29T11:06:37.646Z,19.16
2022-09-29T11:07:44.009Z,19.18
2022-09-29T11:09:05.905Z,19.19
2022-09-29T11:10:19.175Z,19.19
2022-09-29T11:11:32.167Z,19.20
2022-09-29T11:12:39.298Z,19.20
2022-09-29T11:13:44.545Z,19.18
2022-09-29T11:14:47.948Z,19.20
2022-09-29T11:15:51.042Z,19.20
2022-09-29T11:16:56.892Z,19.21
2022-09-29T11:17:59.925Z,19.21
2022-09-29T11:19:06.401Z,19.22
2022-09-29T11:20:14.627Z,19.23
2022-09-29T11:21:21.616Z,19.25
2022-09-29T11:22:59.866Z,19.25
2022-09-29T11:24:34.993Z,19.25
2022-09-29T11:25:53.277Z,19.26
2022-09-29T11:27:25.412Z,19.28
2022-09-29T11:28:43.726Z,19.28
2022-09-29T11:30:02.077Z,19.29
2022-09-29T11:31:29.900Z,19.31
2022-09-29T11:32:45.494Z,19.32
2022-09-29T11:34:00.623Z,19.32
2022-09-29T11:35:26.466Z,19.33
2022-09-29T11:37:04.850Z,19.33
2022-09-29T11:38:21.213Z,19.33
2022-09-29T11:39:37.015Z,19.31
2022-09-29T11:40:58.951Z,19.30
2022-09-29T11:42:08.142Z,19.30
2022-09-29T11:43:31.265Z,19.30
2022-09-29T11:44:57.733Z,19.31
2022-09-29T11:46:38.850Z,19.32
2022-09-29T11:47:49.187Z,19.32
2022-09-29T11:49:10.260Z,19.32
2022-09-29T11:50:38.105Z,19.30
2022-09-29T11:52:02.820Z,19.29
2022-09-29T11:53:15.407Z,19.28
2022-09-29T11:54:25.074Z,19.27
2022-09-29T11:55:35.813Z,19.27
2022-09-29T11:56:48.994Z,19.29
2022-09-29T11:58:07.341Z,19.31
2022-09-29T11:59:25.480Z,19.31
2022-09-29T12:00:52.913Z,19.33
2022-09-29T12:02:16.563Z,19.34
2022-09-29T12:03:38.036Z,19.35
2022-09-29T12:04:56.499Z,19.37
2022-09-29T12:06:25.082Z,19.39
2022-09-29T12:07:31.408Z,19.40
2022-09-29T12:09:02.617Z,19.41
2022-09-29T12:10:33.271Z,19.43
2022-09-29T12:12:18.886Z,19.45
2022-09-29T12:13:34.909Z,19.45
2022-09-29T12:14:57.985Z,19.46
2022-09-29T12:16:10.476Z,19.46
2022-09-29T12:17:19.745Z,19.46
2022-09-29T12:18:29.278Z,19.46
2022-09-29T12:19:35.974Z,19.46
2022-09-29T12:20:42.522Z,19.47
2022-09-29T12:21:50.052Z,19.48
2022-09-29T12:22:55.736Z,19.48
2022-09-29T12:24:00.834Z,19.50
2022-09-29T12:25:04.348Z,19.51
2022-09-29T12:26:17.147Z,19.53
2022-09-29T12:27:26.369Z,19.54
2022-09-29T12:28:38.489Z,19.55
2022-09-29T12:29:44.884Z,19.56
2022-09-29T12:30:51.590Z,19.57
2022-09-29T12:31:57.891Z,19.58
2022-09-29T12:33:19.618Z,19.60
2022-09-29T12:34:44.299Z,19.62
2022-09-29T12:36:42.591Z,19.62
2022-09-29T12:37:58.854Z,19.62
2022-09-29T12:39:10.134Z,19.62
2022-09-29T12:40:28.501Z,19.62
2022-09-29T12:41:34.908Z,19.63
2022-09-29T12:43:02.567Z,19.63
2022-09-29T12:44:09.879Z,19.64
2022-09-29T12:45:19.097Z,19.65
2022-09-29T12:46:42.897Z,19.66
2022-09-29T12:47:49.600Z,19.66
2022-09-29T12:49:11.083Z,19.67
2022-09-29T12:50:35.795Z,19.66
2022-09-29T12:51:48.036Z,19.67
2022-09-29T12:53:00.114Z,19.66
2022-09-29T12:54:28.215Z,19.66
2022-09-29T12:55:49.828Z,19.67
2022-09-29T12:56:58.949Z,19.67
2022-09-29T12:58:05.567Z,19.66
2022-09-29T12:59:32.258Z,19.67
2022-09-29T13:00:37.354Z,19.68
2022-09-29T13:01:41.139Z,19.69
2022-09-29T13:03:00.606Z,19.69
2022-09-29T13:04:16.223Z,19.70
2022-09-29T13:05:34.579Z,19.71
2022-09-29T13:07:06.646Z,19.72
2022-09-29T13:08:27.976Z,19.74
2022-09-29T13:10:08.860Z,19.74
2022-09-29T13:11:37.153Z,19.74
2022-09-29T13:13:00.210Z,19.73
2022-09-29T13:14:15.785Z,19.74
2022-09-29T13:15:46.183Z,19.72
2022-09-29T13:16:51.789Z,19.74
2022-09-29T13:18:20.047Z,19.75
2022-09-29T13:19:56.337Z,19.76
2022-09-29T13:20:59.029Z,19.76
2022-09-29T13:22:32.695Z,19.78
2022-09-29T13:24:03.007Z,19.78
2022-09-29T13:25:29.865Z,19.77
2022-09-29T13:26:42.570Z,19.77
2022-09-29T13:27:46.452Z,19.77
2022-09-29T13:28:53.693Z,19.77
2022-09-29T13:30:06.276Z,19.77
2022-09-29T13:31:13.797Z,19.78
2022-09-29T13:32:18.045Z,19.77
2022-09-29T13:33:24.631Z,19.79
2022-09-29T13:34:33.416Z,19.80
2022-09-29T13:35:42.182Z,19.80
2022-09-29T13:36:46.738Z,19.81
2022-09-29T13:37:53.226Z,19.81
2022-09-29T13:38:59.517Z,19.82
2022-09-29T13:40:11.259Z,19.82
2022-09-29T13:41:24.138Z,19.82
2022-09-29T13:42:45.002Z,19.82
2022-09-29T13:43:54.500Z,19.81
2022-09-29T13:45:17.852Z,19.81
2022-09-29T13:46:33.751Z,19.81
2022-09-29T13:47:40.192Z,19.80
2022-09-29T13:48:49.253Z,19.78
2022-09-29T13:49:54.455Z,19.78
2022-09-29T13:51:01.769Z,19.76
2022-09-29T13:52:12.061Z,19.76
2022-09-29T13:53:27.720Z,19.75
2022-09-29T13:54:41.907Z,19.75
2022-09-29T13:57:27.667Z,19.74
2022-09-29T13:58:34.718Z,19.73
2022-09-29T13:59:45.644Z,19.71
2022-09-29T14:00:48.903Z,19.70
2022-09-29T14:01:52.750Z,19.68
2022-09-29T14:03:05.202Z,19.67
2022-09-29T14:04:38.080Z,19.66
2022-09-29T14:05:45.149Z,19.64
2022-09-29T14:06:48.244Z,19.61
2022-09-29T14:08:18.824Z,19.60
2022-09-29T14:09:23.313Z,19.60
2022-09-29T14:10:39.040Z,19.57
2022-09-29T14:11:48.823Z,19.57
2022-09-29T14:12:57.984Z,19.56
2022-09-29T14:14:16.636Z,19.56
2022-09-29T14:15:20.180Z,19.56
2022-09-29T14:16:36.786Z,19.58
2022-09-29T14:17:43.505Z,19.59
2022-09-29T14:18:49.879Z,19.61
2022-09-29T14:20:05.302Z,19.61
2022-09-29T14:21:14.095Z,19.62
2022-09-29T14:22:47.484Z,19.64
2022-09-29T14:23:52.397Z,19.65
2022-09-29T14:25:11.044Z,19.65
2022-09-29T14:26:43.719Z,19.64
2022-09-29T14:28:00.517Z,19.66
2022-09-29T14:29:04.116Z,19.63
2022-09-29T14:30:15.141Z,19.62
2022-09-29T14:31:20.183Z,19.61
2022-09-29T14:32:41.856Z,19.61
2022-09-29T14:33:45.210Z,19.57
2022-09-29T14:34:52.042Z,19.54
2022-09-29T14:36:07.536Z,19.54
2022-09-29T14:37:17.794Z,19.53
2022-09-29T14:38:24.180Z,19.52
2022-09-29T14:39:29.129Z,19.50
2022-09-29T14:40:32.617Z,19.49
2022-09-29T14:41:41.419Z,19.48
2022-09-29T14:42:44.438Z,19.47
2022-09-29T14:44:15.344Z,19.46
2022-09-29T14:45:36.926Z,19.44
2022-09-29T14:47:01.707Z,19.42
2022-09-29T14:48:29.519Z,19.39
2022-09-29T14:50:12.686Z,19.37
2022-09-29T14:51:43.681Z,19.34
2022-09-29T14:52:57.110Z,19.29
2022-09-29T14:54:21.716Z,19.25